TimeEDT,TemperatureF,Dew PointF,Humidity,Sea Level PressureIn,VisibilityMPH,Wind Direction,Wind SpeedMPH,Gust SpeedMPH,PrecipitationIn,Events,Conditions,WindDirDegrees,DateUTC
12:15 AM,68.0,66.2,94,30.05,7.0,ENE,10.4,16.1,0.01,,Overcast,70,2013-07-13 04:15:00
12:35 AM,68.0,68.0,100,30.05,7.0,ENE,9.2,-,0.02,,Overcast,70,2013-07-13 04:35:00
12:55 AM,68.0,68.0,100,30.06,7.0,East,8.1,-,0.03,,Overcast,80,2013-07-13 04:55:00
1:15 AM,68.0,68.0,100,30.06,5.0,ENE,10.4,-,N/A,,Overcast,70,2013-07-13 05:15:00
1:35 AM,68.0,68.0,100,30.07,3.0,East,11.5,16.1,N/A,,Overcast,80,2013-07-13 05:35:00
1:55 AM,68.0,68.0,100,30.07,2.5,East,9.2,-,N/A,,Overcast,80,2013-07-13 05:55:00
2:15 AM,68.0,68.0,100,30.07,2.5,East,6.9,-,N/A,,Overcast,80,2013-07-13 06:15:00
2:35 AM,68.0,68.0,100,30.06,2.0,East,9.2,-,N/A,,Overcast,80,2013-07-13 06:35:00
2:55 AM,68.0,68.0,100,30.06,2.0,East,5.8,-,N/A,,Overcast,90,2013-07-13 06:55:00
3:15 AM,69.8,68.0,94,30.06,4.0,East,6.9,-,N/A,,Overcast,80,2013-07-13 07:15:00
3:35 AM,69.8,68.0,94,30.07,4.0,East,6.9,-,N/A,,Overcast,80,2013-07-13 07:35:00
3:55 AM,69.8,68.0,94,30.08,5.0,East,6.9,-,N/A,,Overcast,90,2013-07-13 07:55:00
4:15 AM,69.8,68.0,94,30.09,5.0,Calm,Calm,-,N/A,,Overcast,0,2013-07-13 08:15:00
4:35 AM,69.8,68.0,94,30.09,5.0,Calm,Calm,-,N/A,,Overcast,0,2013-07-13 08:35:00
4:55 AM,69.8,68.0,94,30.10,7.0,Calm,Calm,-,N/A,,Overcast,0,2013-07-13 08:55:00
5:15 AM,69.8,68.0,94,30.11,7.0,East,3.5,-,N/A,,Overcast,80,2013-07-13 09:15:00
5:35 AM,69.8,68.0,94,30.11,10.0,Calm,Calm,-,N/A,,Overcast,0,2013-07-13 09:35:00
5:55 AM,69.8,68.0,94,30.12,7.0,Calm,Calm,-,N/A,,Overcast,0,2013-07-13 09:55:00
6:15 AM,69.8,68.0,94,30.13,7.0,Calm,Calm,-,N/A,,Overcast,0,2013-07-13 10:15:00
6:35 AM,69.8,68.0,94,30.13,7.0,East,4.6,-,N/A,,Overcast,100,2013-07-13 10:35:00
6:55 AM,69.8,69.8,100,30.14,7.0,ESE,4.6,-,N/A,,Mostly Cloudy,110,2013-07-13 10:55:00
7:15 AM,71.6,69.8,94,30.15,7.0,Calm,Calm,-,N/A,,Mostly Cloudy,0,2013-07-13 11:15:00
7:35 AM,71.6,69.8,94,30.15,10.0,Calm,Calm,-,N/A,,Mostly Cloudy,0,2013-07-13 11:35:00
7:55 AM,71.6,69.8,94,30.16,10.0,Calm,Calm,-,N/A,,Mostly Cloudy,0,2013-07-13 11:55:00
8:15 AM,71.6,69.8,94,30.17,10.0,East,3.5,-,N/A,,Mostly Cloudy,100,2013-07-13 12:15:00
8:35 AM,73.4,69.8,88,30.18,10.0,ESE,5.8,-,N/A,,Overcast,120,2013-07-13 12:35:00
8:55 AM,75.2,69.8,83,30.19,10.0,East,5.8,-,N/A,,Overcast,100,2013-07-13 12:55:00
9:15 AM,73.4,69.8,88,30.19,10.0,ESE,8.1,-,N/A,,Overcast,120,2013-07-13 13:15:00
9:35 AM,73.4,69.8,88,30.19,10.0,ESE,6.9,-,N/A,,Overcast,120,2013-07-13 13:35:00
9:55 AM,75.2,69.8,83,30.20,10.0,SE,6.9,-,N/A,,Overcast,130,2013-07-13 13:55:00
10:15 AM,77.0,69.8,78,30.20,10.0,SSE,5.8,-,N/A,,Overcast,150,2013-07-13 14:15:00
10:35 AM,77.0,69.8,78,30.21,10.0,ESE,4.6,-,N/A,,Overcast,120,2013-07-13 14:35:00
10:55 AM,77.0,69.8,78,30.20,10.0,SE,3.5,-,N/A,,Overcast,130,2013-07-13 14:55:00
11:15 AM,78.8,71.6,78,30.20,10.0,SSE,4.6,-,N/A,,Overcast,150,2013-07-13 15:15:00
11:35 AM,78.8,69.8,74,30.21,10.0,SSE,3.5,-,N/A,,Mostly Cloudy,160,2013-07-13 15:35:00
11:55 AM,78.8,69.8,74,30.21,10.0,SSE,5.8,-,N/A,,Mostly Cloudy,150,2013-07-13 15:55:00
12:15 PM,78.8,69.8,74,30.21,10.0,Calm,Calm,-,N/A,,Mostly Cloudy,0,2013-07-13 16:15:00
12:35 PM,80.6,71.6,74,30.21,10.0,Calm,Calm,-,N/A,,Mostly Cloudy,0,2013-07-13 16:35:00
12:55 PM,82.4,71.6,70,30.21,10.0,Calm,Calm,-,N/A,,Mostly Cloudy,0,2013-07-13 16:55:00
1:15 PM,80.6,71.6,74,30.21,10.0,Calm,Calm,-,N/A,,Mostly Cloudy,0,2013-07-13 17:15:00
1:35 PM,80.6,71.6,74,30.21,7.0,Calm,Calm,-,N/A,,Mostly Cloudy,0,2013-07-13 17:35:00
1:55 PM,84.2,71.6,66,30.20,10.0,SE,6.9,-,N/A,,Scattered Clouds,130,2013-07-13 17:55:00
2:15 PM,82.4,71.6,70,30.20,10.0,Calm,Calm,-,N/A,,Scattered Clouds,0,2013-07-13 18:15:00
2:35 PM,82.4,71.6,70,30.20,10.0,Calm,Calm,-,N/A,,Scattered Clouds,0,2013-07-13 18:35:00
2:55 PM,82.4,71.6,70,30.20,10.0,Calm,Calm,-,N/A,,Mostly Cloudy,0,2013-07-13 18:55:00
3:15 PM,84.2,71.6,66,30.20,10.0,Calm,Calm,-,N/A,,Scattered Clouds,0,2013-07-13 19:15:00
3:35 PM,86.0,71.6,62,30.19,10.0,Calm,Calm,-,N/A,,Scattered Clouds,0,2013-07-13 19:35:00
3:55 PM,84.2,71.6,66,30.20,10.0,Calm,Calm,-,N/A,,Mostly Cloudy,0,2013-07-13 19:55:00
4:15 PM,82.4,71.6,70,30.19,10.0,Calm,Calm,-,N/A,,Scattered Clouds,0,2013-07-13 20:15:00
4:35 PM,86.0,71.6,62,30.20,10.0,Calm,Calm,-,N/A,,Scattered Clouds,0,2013-07-13 20:35:00
4:55 PM,86.0,69.8,58,30.19,10.0,Calm,Calm,-,N/A,,Scattered Clouds,0,2013-07-13 20:55:00
5:15 PM,87.8,71.6,58,30.19,10.0,Calm,Calm,-,N/A,,Scattered Clouds,0,2013-07-13 21:15:00
5:35 PM,87.8,69.8,55,30.19,7.0,Calm,Calm,-,N/A,,Scattered Clouds,0,2013-07-13 21:35:00
5:55 PM,87.8,71.6,58,30.20,10.0,Calm,Calm,-,N/A,,Scattered Clouds,0,2013-07-13 21:55:00
6:15 PM,80.6,73.4,79,30.21,10.0,Calm,Calm,-,N/A,,Mostly Cloudy,0,2013-07-13 22:15:00
6:35 PM,78.8,71.6,78,30.21,10.0,Calm,Calm,-,N/A,,Mostly Cloudy,0,2013-07-13 22:35:00
6:55 PM,78.8,73.4,83,30.23,10.0,Calm,Calm,-,N/A,,Scattered Clouds,0,2013-07-13 22:55:00
7:15 PM,78.8,73.4,83,30.23,10.0,Calm,Calm,-,N/A,,Mostly Cloudy,0,2013-07-13 23:15:00
7:35 PM,78.8,73.4,83,30.24,10.0,Calm,Calm,-,N/A,,Scattered Clouds,0,2013-07-13 23:35:00
7:55 PM,77.0,73.4,89,30.24,10.0,Calm,Calm,-,N/A,,Scattered Clouds,0,2013-07-13 23:55:00
8:15 PM,77.0,73.4,89,30.24,10.0,Calm,Calm,-,N/A,,Scattered Clouds,0,2013-07-14 00:15:00
8:35 PM,77.0,73.4,89,30.25,10.0,Calm,Calm,-,N/A,,Clear,0,2013-07-14 00:35:00
8:55 PM,77.0,73.4,89,30.26,10.0,Calm,Calm,-,N/A,,Scattered Clouds,0,2013-07-14 00:55:00
9:15 PM,75.2,73.4,94,30.26,10.0,Calm,Calm,-,N/A,,Scattered Clouds,0,2013-07-14 01:15:00
9:35 PM,73.4,73.4,100,30.26,10.0,Calm,Calm,-,N/A,,Clear,0,2013-07-14 01:35:00
9:55 PM,73.4,73.4,100,30.27,10.0,Calm,Calm,-,N/A,,Scattered Clouds,0,2013-07-14 01:55:00
10:15 PM,73.4,71.6,94,30.27,7.0,Calm,Calm,-,N/A,,Scattered Clouds,0,2013-07-14 02:15:00
10:35 PM,73.4,71.6,94,30.28,7.0,Calm,Calm,-,N/A,,Clear,0,2013-07-14 02:35:00
10:55 PM,73.4,71.6,94,30.28,7.0,Calm,Calm,-,N/A,,Clear,0,2013-07-14 02:55:00
11:15 PM,73.4,71.6,94,30.29,5.0,Calm,Calm,-,N/A,,Clear,0,2013-07-14 03:15:00
11:35 PM,73.4,71.6,94,30.30,5.0,Calm,Calm,-,N/A,,Clear,0,2013-07-14 03:35:00
11:55 PM,71.6,71.6,100,30.30,5.0,Calm,Calm,-,N/A,,Scattered Clouds,0,2013-07-14 03:55:00